sensor_id;sensor_type;location;lat;lon;timestamp;pressure;altitude;pressure_sealevel;temperature;humidity
28310;BME280;15571;50.974;13.936;2024-03-08T00:00:49;100741.16;;;4.60;100.00
28310;BME280;15571;50.974;13.936;2024-03-08T00:03:53;100742.75;;;4.56;100.00
28310;BME280;15571;50.974;13.936;2024-03-08T00:06:55;100736.72;;;4.57;100.00
28310;BME280;15571;50.974;13.936;2024-03-08T00:09:57;100738.63;;;4.63;100.00
28310;BME280;15571;50.974;13.936;2024-03-08T00:12:59;100733.75;;;4.75;100.00
28310;BME280;15571;50.974;13.936;2024-03-08T00:16:03;100741.09;;;4.58;100.00
28310;BME280;15571;50.974;13.936;2024-03-08T00:19:07;100738.78;;;4.37;100.00
28310;BME280;15571;50.974;13.936;2024-03-08T00:22:09;100735.66;;;4.49;100.00
28310;BME280;15571;50.974;13.936;2024-03-08T00:25:12;100735.84;;;4.55;100.00
28310;BME280;15571;50.974;13.936;2024-03-08T00:28:13;100738.56;;;4.29;100.00
28310;BME280;15571;50.974;13.936;2024-03-08T00:31:17;100735.88;;;3.96;100.00
28310;BME280;15571;50.974;13.936;2024-03-08T00:34:20;100736.66;;;3.64;100.00
28310;BME280;15571;50.974;13.936;2024-03-08T00:37:22;100740.19;;;3.66;100.00
28310;BME280;15571;50.974;13.936;2024-03-08T00:40:25;100742.16;;;3.75;100.00
28310;BME280;15571;50.974;13.936;2024-03-08T00:43:26;100746.22;;;3.67;100.00
28310;BME280;15571;50.974;13.936;2024-03-08T00:46:29;100737.47;;;3.63;100.00
28310;BME280;15571;50.974;13.936;2024-03-08T00:49:33;100733.66;;;3.79;100.00
28310;BME280;15571;50.974;13.936;2024-03-08T00:52:37;100730.88;;;3.73;100.00
28310;BME280;15571;50.974;13.936;2024-03-08T00:55:38;100726.16;;;3.60;100.00
28310;BME280;15571;50.974;13.936;2024-03-08T00:58:40;100730.22;;;3.51;100.00
28310;BME280;15571;50.974;13.936;2024-03-08T01:01:42;100727.00;;;3.58;100.00
28310;BME280;15571;50.974;13.936;2024-03-08T01:04:46;100726.88;;;3.55;100.00
28310;BME280;15571;50.974;13.936;2024-03-08T01:07:48;100723.34;;;3.53;100.00
28310;BME280;15571;50.974;13.936;2024-03-08T01:10:50;100724.53;;;3.36;100.00
28310;BME280;15571;50.974;13.936;2024-03-08T01:13:52;100718.81;;;3.46;100.00
28310;BME280;15571;50.974;13.936;2024-03-08T01:16:54;100719.03;;;3.52;100.00
28310;BME280;15571;50.974;13.936;2024-03-08T01:19:58;100713.50;;;3.69;100.00
28310;BME280;15571;50.974;13.936;2024-03-08T01:23:00;100714.00;;;3.30;100.00
28310;BME280;15571;50.974;13.936;2024-03-08T01:26:02;100706.53;;;3.39;100.00
28310;BME280;15571;50.974;13.936;2024-03-08T01:29:06;100704.34;;;3.80;100.00
28310;BME280;15571;50.974;13.936;2024-03-08T01:32:08;100707.06;;;3.29;100.00
28310;BME280;15571;50.974;13.936;2024-03-08T01:35:12;100699.94;;;3.21;100.00
28310;BME280;15571;50.974;13.936;2024-03-08T01:38:14;100696.03;;;3.62;100.00
28310;BME280;15571;50.974;13.936;2024-03-08T01:41:16;100687.34;;;3.32;100.00
28310;BME280;15571;50.974;13.936;2024-03-08T01:44:18;100682.25;;;3.08;100.00
28310;BME280;15571;50.974;13.936;2024-03-08T01:47:21;100686.28;;;2.98;100.00
28310;BME280;15571;50.974;13.936;2024-03-08T01:50:27;100677.34;;;2.90;100.00
28310;BME280;15571;50.974;13.936;2024-03-08T01:53:30;100677.09;;;3.08;100.00
28310;BME280;15571;50.974;13.936;2024-03-08T01:56:32;100675.19;;;3.02;100.00
28310;BME280;15571;50.974;13.936;2024-03-08T01:59:34;100672.28;;;2.93;100.00
28310;BME280;15571;50.974;13.936;2024-03-08T02:02:36;100674.44;;;2.79;100.00
28310;BME280;15571;50.974;13.936;2024-03-08T02:05:42;100669.50;;;2.61;100.00
28310;BME280;15571;50.974;13.936;2024-03-08T02:08:44;100668.84;;;2.67;100.00
28310;BME280;15571;50.974;13.936;2024-03-08T02:11:49;100669.22;;;2.77;100.00
28310;BME280;15571;50.974;13.936;2024-03-08T02:14:51;100666.56;;;2.76;100.00
28310;BME280;15571;50.974;13.936;2024-03-08T02:17:56;100663.53;;;2.88;100.00
28310;BME280;15571;50.974;13.936;2024-03-08T02:20:59;100665.66;;;2.74;100.00
28310;BME280;15571;50.974;13.936;2024-03-08T02:24:01;100657.91;;;2.74;100.00
28310;BME280;15571;50.974;13.936;2024-03-08T02:27:03;100654.78;;;2.58;100.00
28310;BME280;15571;50.974;13.936;2024-03-08T02:30:06;100656.94;;;2.46;100.00
28310;BME280;15571;50.974;13.936;2024-03-08T02:33:08;100651.19;;;2.53;100.00
28310;BME280;15571;50.974;13.936;2024-03-08T02:36:12;100652.38;;;2.39;100.00
28310;BME280;15571;50.974;13.936;2024-03-08T02:39:14;100653.47;;;2.45;100.00
28310;BME280;15571;50.974;13.936;2024-03-08T02:42:16;100654.25;;;2.43;100.00
28310;BME280;15571;50.974;13.936;2024-03-08T02:45:23;100656.06;;;2.45;100.00
28310;BME280;15571;50.974;13.936;2024-03-08T02:48:25;100654.03;;;2.88;100.00
28310;BME280;15571;50.974;13.936;2024-03-08T02:51:28;100645.41;;;2.88;100.00
28310;BME280;15571;50.974;13.936;2024-03-08T02:54:31;100655.91;;;2.92;100.00
28310;BME280;15571;50.974;13.936;2024-03-08T02:57:33;100644.31;;;2.55;100.00
28310;BME280;15571;50.974;13.936;2024-03-08T03:00:34;100639.94;;;2.53;100.00
28310;BME280;15571;50.974;13.936;2024-03-08T03:03:36;100643.72;;;2.62;100.00
28310;BME280;15571;50.974;13.936;2024-03-08T03:06:40;100638.88;;;2.72;100.00
28310;BME280;15571;50.974;13.936;2024-03-08T03:09:41;100637.44;;;2.82;100.00
28310;BME280;15571;50.974;13.936;2024-03-08T03:12:43;100632.56;;;2.63;100.00
28310;BME280;15571;50.974;13.936;2024-03-08T03:15:46;100639.78;;;2.48;100.00
28310;BME280;15571;50.974;13.936;2024-03-08T03:18:48;100638.44;;;2.33;100.00
28310;BME280;15571;50.974;13.936;2024-03-08T03:21:51;100640.59;;;2.21;100.00
28310;BME280;15571;50.974;13.936;2024-03-08T03:24:53;100636.44;;;2.26;100.00
28310;BME280;15571;50.974;13.936;2024-03-08T03:27:56;100634.81;;;2.28;100.00
28310;BME280;15571;50.974;13.936;2024-03-08T03:30:57;100634.19;;;2.36;100.00
28310;BME280;15571;50.974;13.936;2024-03-08T03:34:03;100635.13;;;2.38;100.00
28310;BME280;15571;50.974;13.936;2024-03-08T03:37:09;100635.06;;;2.10;100.00
28310;BME280;15571;50.974;13.936;2024-03-08T03:40:13;100632.19;;;2.02;100.00
28310;BME280;15571;50.974;13.936;2024-03-08T03:43:15;100633.97;;;2.04;100.00
28310;BME280;15571;50.974;13.936;2024-03-08T03:46:16;100630.44;;;2.01;100.00
28310;BME280;15571;50.974;13.936;2024-03-08T03:49:19;100627.84;;;2.01;100.00
28310;BME280;15571;50.974;13.936;2024-03-08T03:52:22;100626.13;;;2.26;100.00
28310;BME280;15571;50.974;13.936;2024-03-08T03:55:27;100629.28;;;2.17;100.00
28310;BME280;15571;50.974;13.936;2024-03-08T03:58:29;100624.56;;;2.06;100.00
28310;BME280;15571;50.974;13.936;2024-03-08T04:01:30;100629.53;;;2.01;100.00
28310;BME280;15571;50.974;13.936;2024-03-08T04:04:32;100624.66;;;2.09;100.00
28310;BME280;15571;50.974;13.936;2024-03-08T04:07:35;100616.41;;;1.95;100.00
28310;BME280;15571;50.974;13.936;2024-03-08T04:10:37;100614.50;;;1.89;100.00
28310;BME280;15571;50.974;13.936;2024-03-08T04:13:39;100617.16;;;1.91;100.00
28310;BME280;15571;50.974;13.936;2024-03-08T04:16:41;100617.81;;;1.85;100.00
28310;BME280;15571;50.974;13.936;2024-03-08T04:19:43;100611.47;;;1.77;100.00
28310;BME280;15571;50.974;13.936;2024-03-08T04:22:46;100620.75;;;1.71;100.00
28310;BME280;15571;50.974;13.936;2024-03-08T04:25:49;100620.75;;;1.71;100.00
28310;BME280;15571;50.974;13.936;2024-03-08T04:28:51;100609.25;;;1.86;100.00
28310;BME280;15571;50.974;13.936;2024-03-08T04:31:53;100613.28;;;2.04;100.00
28310;BME280;15571;50.974;13.936;2024-03-08T04:34:55;100610.06;;;2.09;100.00
28310;BME280;15571;50.974;13.936;2024-03-08T04:37:58;100605.06;;;1.90;100.00
28310;BME280;15571;50.974;13.936;2024-03-08T04:41:00;100609.78;;;1.77;100.00
28310;BME280;15571;50.974;13.936;2024-03-08T04:44:02;100599.97;;;1.68;100.00
28310;BME280;15571;50.974;13.936;2024-03-08T04:47:04;100610.31;;;1.68;100.00
28310;BME280;15571;50.974;13.936;2024-03-08T04:50:07;100605.38;;;1.75;100.00
28310;BME280;15571;50.974;13.936;2024-03-08T04:53:11;100602.53;;;1.91;100.00
28310;BME280;15571;50.974;13.936;2024-03-08T04:56:14;100601.88;;;1.73;100.00
28310;BME280;15571;50.974;13.936;2024-03-08T04:59:16;100601.53;;;1.63;100.00
28310;BME280;15571;50.974;13.936;2024-03-08T05:02:18;100592.41;;;1.73;100.00
28310;BME280;15571;50.974;13.936;2024-03-08T05:05:23;100594.81;;;1.68;100.00
28310;BME280;15571;50.974;13.936;2024-03-08T05:08:30;100591.22;;;1.63;100.00
28310;BME280;15571;50.974;13.936;2024-03-08T05:11:33;100588.13;;;1.74;100.00
28310;BME280;15571;50.974;13.936;2024-03-08T05:14:35;100587.94;;;2.17;100.00
28310;BME280;15571;50.974;13.936;2024-03-08T05:17:37;100590.44;;;1.90;100.00
28310;BME280;15571;50.974;13.936;2024-03-08T05:20:40;100591.09;;;2.09;100.00
28310;BME280;15571;50.974;13.936;2024-03-08T05:23:43;100592.56;;;1.78;100.00
28310;BME280;15571;50.974;13.936;2024-03-08T05:26:45;100593.38;;;1.77;100.00
28310;BME280;15571;50.974;13.936;2024-03-08T05:29:48;100587.03;;;1.67;100.00
28310;BME280;15571;50.974;13.936;2024-03-08T05:32:49;100594.06;;;1.71;100.00
28310;BME280;15571;50.974;13.936;2024-03-08T05:35:51;100587.81;;;1.89;100.00
28310;BME280;15571;50.974;13.936;2024-03-08T05:38:55;100587.72;;;1.63;100.00
28310;BME280;15571;50.974;13.936;2024-03-08T05:41:57;100584.78;;;2.00;100.00
28310;BME280;15571;50.974;13.936;2024-03-08T05:44:59;100586.41;;;1.98;100.00
28310;BME280;15571;50.974;13.936;2024-03-08T05:48:01;100586.03;;;1.63;100.00
28310;BME280;15571;50.974;13.936;2024-03-08T05:51:03;100583.84;;;1.74;100.00
28310;BME280;15571;50.974;13.936;2024-03-08T05:54:07;100581.50;;;2.05;100.00
28310;BME280;15571;50.974;13.936;2024-03-08T05:57:10;100586.81;;;1.85;100.00
28310;BME280;15571;50.974;13.936;2024-03-08T06:00:12;100592.41;;;1.97;100.00
28310;BME280;15571;50.974;13.936;2024-03-08T06:03:16;100589.34;;;1.83;100.00
28310;BME280;15571;50.974;13.936;2024-03-08T06:06:20;100589.72;;;1.70;100.00
28310;BME280;15571;50.974;13.936;2024-03-08T06:09:23;100587.81;;;1.64;100.00
28310;BME280;15571;50.974;13.936;2024-03-08T06:12:25;100587.81;;;1.64;100.00
28310;BME280;15571;50.974;13.936;2024-03-08T06:15:33;100595.75;;;1.70;100.00
28310;BME280;15571;50.974;13.936;2024-03-08T06:18:36;100588.00;;;1.70;100.00
28310;BME280;15571;50.974;13.936;2024-03-08T06:21:41;100587.16;;;1.70;100.00
28310;BME280;15571;50.974;13.936;2024-03-08T06:24:44;100590.31;;;1.87;100.00
28310;BME280;15571;50.974;13.936;2024-03-08T06:27:47;100592.91;;;1.87;100.00
28310;BME280;15571;50.974;13.936;2024-03-08T06:30:49;100583.19;;;1.80;100.00
28310;BME280;15571;50.974;13.936;2024-03-08T06:33:52;100584.88;;;2.04;100.00
28310;BME280;15571;50.974;13.936;2024-03-08T06:36:54;100585.84;;;2.06;100.00
28310;BME280;15571;50.974;13.936;2024-03-08T06:40:03;100568.78;;;2.11;100.00
28310;BME280;15571;50.974;13.936;2024-03-08T06:43:05;100573.94;;;2.11;100.00
28310;BME280;15571;50.974;13.936;2024-03-08T06:46:07;100573.06;;;2.10;100.00
28310;BME280;15571;50.974;13.936;2024-03-08T06:49:09;100570.53;;;2.12;100.00
28310;BME280;15571;50.974;13.936;2024-03-08T06:52:11;100567.34;;;2.19;100.00
28310;BME280;15571;50.974;13.936;2024-03-08T06:55:17;100569.22;;;2.23;100.00
28310;BME280;15571;50.974;13.936;2024-03-08T06:58:19;100569.50;;;2.32;100.00
28310;BME280;15571;50.974;13.936;2024-03-08T07:01:24;100571.66;;;2.46;100.00
28310;BME280;15571;50.974;13.936;2024-03-08T07:04:26;100561.94;;;2.64;100.00
28310;BME280;15571;50.974;13.936;2024-03-08T07:07:30;100571.34;;;2.90;100.00
28310;BME280;15571;50.974;13.936;2024-03-08T07:10:33;100569.06;;;2.72;100.00
28310;BME280;15571;50.974;13.936;2024-03-08T07:13:37;100567.59;;;3.07;100.00
28310;BME280;15571;50.974;13.936;2024-03-08T07:16:39;100554.78;;;3.12;100.00
28310;BME280;15571;50.974;13.936;2024-03-08T07:19:41;100556.25;;;3.04;100.00
28310;BME280;15571;50.974;13.936;2024-03-08T07:22:44;100553.38;;;2.94;100.00
28310;BME280;15571;50.974;13.936;2024-03-08T07:25:49;100553.38;;;3.23;100.00
28310;BME280;15571;50.974;13.936;2024-03-08T07:28:51;100555.75;;;3.16;100.00
28310;BME280;15571;50.974;13.936;2024-03-08T07:31:54;100548.78;;;3.42;100.00
28310;BME280;15571;50.974;13.936;2024-03-08T07:35:08;100541.72;;;3.38;100.00
28310;BME280;15571;50.974;13.936;2024-03-08T07:38:11;100547.28;;;3.50;100.00
28310;BME280;15571;50.974;13.936;2024-03-08T07:41:16;100535.41;;;3.58;100.00
28310;BME280;15571;50.974;13.936;2024-03-08T07:44:18;100537.09;;;3.56;100.00
28310;BME280;15571;50.974;13.936;2024-03-08T07:47:20;100535.63;;;3.66;100.00
28310;BME280;15571;50.974;13.936;2024-03-08T07:50:22;100528.28;;;3.82;100.00
28310;BME280;15571;50.974;13.936;2024-03-08T07:53:24;100522.47;;;3.91;100.00
28310;BME280;15571;50.974;13.936;2024-03-08T07:56:27;100526.38;;;4.08;100.00
28310;BME280;15571;50.974;13.936;2024-03-08T07:59:29;100522.03;;;4.07;100.00
28310;BME280;15571;50.974;13.936;2024-03-08T08:02:31;100520.81;;;4.28;100.00
28310;BME280;15571;50.974;13.936;2024-03-08T08:05:36;100516.72;;;4.36;100.00
28310;BME280;15571;50.974;13.936;2024-03-08T08:08:39;100516.41;;;4.60;100.00
28310;BME280;15571;50.974;13.936;2024-03-08T08:11:43;100510.22;;;4.54;100.00
28310;BME280;15571;50.974;13.936;2024-03-08T08:14:45;100513.00;;;4.61;100.00
28310;BME280;15571;50.974;13.936;2024-03-08T08:17:48;100505.53;;;4.75;100.00
28310;BME280;15571;50.974;13.936;2024-03-08T08:20:51;100500.47;;;4.81;100.00
28310;BME280;15571;50.974;13.936;2024-03-08T08:23:57;100506.78;;;4.93;100.00
28310;BME280;15571;50.974;13.936;2024-03-08T08:27:00;100490.28;;;4.91;100.00
28310;BME280;15571;50.974;13.936;2024-03-08T08:30:06;100492.13;;;4.95;100.00
28310;BME280;15571;50.974;13.936;2024-03-08T08:33:09;100481.31;;;5.16;100.00
28310;BME280;15571;50.974;13.936;2024-03-08T08:36:11;100483.25;;;5.26;100.00
28310;BME280;15571;50.974;13.936;2024-03-08T08:39:12;100485.00;;;5.27;100.00
28310;BME280;15571;50.974;13.936;2024-03-08T08:42:16;100485.91;;;5.28;100.00
28310;BME280;15571;50.974;13.936;2024-03-08T08:45:18;100480.72;;;5.28;100.00
28310;BME280;15571;50.974;13.936;2024-03-08T08:48:20;100479.34;;;5.49;100.00
28310;BME280;15571;50.974;13.936;2024-03-08T08:51:22;100472.44;;;5.48;100.00
28310;BME280;15571;50.974;13.936;2024-03-08T08:54:24;100463.00;;;5.53;100.00
28310;BME280;15571;50.974;13.936;2024-03-08T08:57:29;100458.97;;;5.67;100.00
28310;BME280;15571;50.974;13.936;2024-03-08T09:00:33;100455.63;;;5.76;100.00
28310;BME280;15571;50.974;13.936;2024-03-08T09:03:35;100452.28;;;5.82;100.00
28310;BME280;15571;50.974;13.936;2024-03-08T09:06:37;100452.09;;;5.72;100.00
28310;BME280;15571;50.974;13.936;2024-03-08T09:09:41;100448.91;;;5.86;100.00
28310;BME280;15571;50.974;13.936;2024-03-08T09:12:45;100440.59;;;6.05;100.00
28310;BME280;15571;50.974;13.936;2024-03-08T09:15:47;100443.28;;;6.12;100.00
28310;BME280;15571;50.974;13.936;2024-03-08T09:18:49;100436.47;;;6.20;100.00
28310;BME280;15571;50.974;13.936;2024-03-08T09:21:53;100432.38;;;6.34;100.00
28310;BME280;15571;50.974;13.936;2024-03-08T09:24:55;100432.25;;;6.28;100.00
28310;BME280;15571;50.974;13.936;2024-03-08T09:27:59;100426.28;;;6.34;100.00
28310;BME280;15571;50.974;13.936;2024-03-08T09:31:03;100418.75;;;6.51;100.00
28310;BME280;15571;50.974;13.936;2024-03-08T09:34:05;100419.53;;;6.45;100.00
28310;BME280;15571;50.974;13.936;2024-03-08T09:37:08;100415.28;;;6.52;100.00
28310;BME280;15571;50.974;13.936;2024-03-08T09:40:10;100410.41;;;6.77;100.00
28310;BME280;15571;50.974;13.936;2024-03-08T09:43:20;100404.34;;;6.78;100.00
28310;BME280;15571;50.974;13.936;2024-03-08T09:46:22;100406.88;;;6.72;100.00
28310;BME280;15571;50.974;13.936;2024-03-08T09:49:24;100405.47;;;6.95;100.00
28310;BME280;15571;50.974;13.936;2024-03-08T09:52:26;100407.06;;;6.84;100.00
28310;BME280;15571;50.974;13.936;2024-03-08T09:55:31;100400.16;;;6.91;100.00
28310;BME280;15571;50.974;13.936;2024-03-08T09:58:36;100402.06;;;7.03;100.00
28310;BME280;15571;50.974;13.936;2024-03-08T10:01:56;100401.38;;;7.19;100.00
28310;BME280;15571;50.974;13.936;2024-03-08T10:05:00;100386.72;;;7.26;100.00
28310;BME280;15571;50.974;13.936;2024-03-08T10:08:04;100391.16;;;7.35;100.00
28310;BME280;15571;50.974;13.936;2024-03-08T10:11:07;100385.19;;;7.48;100.00
28310;BME280;15571;50.974;13.936;2024-03-08T10:14:13;100381.63;;;7.40;100.00
28310;BME280;15571;50.974;13.936;2024-03-08T10:17:15;100379.94;;;7.42;100.00
28310;BME280;15571;50.974;13.936;2024-03-08T10:20:19;100378.94;;;7.30;100.00
28310;BME280;15571;50.974;13.936;2024-03-08T10:23:21;100379.13;;;7.51;100.00
28310;BME280;15571;50.974;13.936;2024-03-08T10:26:23;100372.25;;;7.57;100.00
28310;BME280;15571;50.974;13.936;2024-03-08T10:29:27;100358.44;;;7.69;100.00
28310;BME280;15571;50.974;13.936;2024-03-08T10:32:29;100372.44;;;7.77;100.00
28310;BME280;15571;50.974;13.936;2024-03-08T10:35:31;100366.34;;;7.74;100.00
28310;BME280;15571;50.974;13.936;2024-03-08T10:38:33;100361.06;;;7.68;100.00
28310;BME280;15571;50.974;13.936;2024-03-08T10:41:37;100355.91;;;7.77;100.00
28310;BME280;15571;50.974;13.936;2024-03-08T10:44:44;100354.41;;;8.07;100.00
28310;BME280;15571;50.974;13.936;2024-03-08T10:47:54;100352.66;;;8.03;100.00
28310;BME280;15571;50.974;13.936;2024-03-08T10:51:03;100351.78;;;8.07;100.00
28310;BME280;15571;50.974;13.936;2024-03-08T10:54:07;100344.97;;;8.29;100.00
28310;BME280;15571;50.974;13.936;2024-03-08T10:57:11;100344.19;;;8.44;100.00
28310;BME280;15571;50.974;13.936;2024-03-08T11:00:16;100339.69;;;8.20;100.00
28310;BME280;15571;50.974;13.936;2024-03-08T11:06:43;100339.03;;;8.52;100.00
28310;BME280;15571;50.974;13.936;2024-03-08T11:09:47;100334.75;;;8.62;100.00
28310;BME280;15571;50.974;13.936;2024-03-08T11:12:52;100326.78;;;8.43;100.00
28310;BME280;15571;50.974;13.936;2024-03-08T11:15:55;100318.19;;;8.58;100.00
28310;BME280;15571;50.974;13.936;2024-03-08T11:18:57;100318.19;;;8.55;100.00
28310;BME280;15571;50.974;13.936;2024-03-08T11:22:07;100312.16;;;8.67;100.00
28310;BME280;15571;50.974;13.936;2024-03-08T11:25:31;100309.56;;;8.75;100.00
28310;BME280;15571;50.974;13.936;2024-03-08T11:28:34;100299.06;;;8.64;100.00
28310;BME280;15571;50.974;13.936;2024-03-08T11:31:37;100294.72;;;8.63;100.00
28310;BME280;15571;50.974;13.936;2024-03-08T11:34:40;100293.91;;;8.71;100.00
28310;BME280;15571;50.974;13.936;2024-03-08T11:37:43;100286.97;;;8.87;100.00
28310;BME280;15571;50.974;13.936;2024-03-08T11:40:45;100285.25;;;8.93;100.00
28310;BME280;15571;50.974;13.936;2024-03-08T11:44:02;100279.16;;;8.97;100.00
28310;BME280;15571;50.974;13.936;2024-03-08T11:47:09;100269.59;;;8.96;100.00
28310;BME280;15571;50.974;13.936;2024-03-08T11:50:15;100271.34;;;8.97;100.00
28310;BME280;15571;50.974;13.936;2024-03-08T11:53:19;100265.28;;;9.19;100.00
28310;BME280;15571;50.974;13.936;2024-03-08T11:56:20;100259.16;;;9.14;100.00
28310;BME280;15571;50.974;13.936;2024-03-08T11:59:22;100253.94;;;9.42;100.00
28310;BME280;15571;50.974;13.936;2024-03-08T12:02:26;100242.63;;;9.46;100.00
28310;BME280;15571;50.974;13.936;2024-03-08T12:05:30;100245.25;;;9.28;100.00
28310;BME280;15571;50.974;13.936;2024-03-08T12:08:33;100245.25;;;9.68;100.00
28310;BME280;15571;50.974;13.936;2024-03-08T12:11:37;100234.78;;;9.65;100.00
28310;BME280;15571;50.974;13.936;2024-03-08T12:14:39;100239.13;;;9.71;100.00
28310;BME280;15571;50.974;13.936;2024-03-08T12:17:47;100231.22;;;9.94;100.00
28310;BME280;15571;50.974;13.936;2024-03-08T12:20:49;100234.75;;;9.84;100.00
28310;BME280;15571;50.974;13.936;2024-03-08T12:24:01;100227.78;;;9.76;100.00
28310;BME280;15571;50.974;13.936;2024-03-08T12:27:17;100229.47;;;9.90;100.00
28310;BME280;15571;50.974;13.936;2024-03-08T12:30:19;100220.78;;;9.85;100.00
28310;BME280;15571;50.974;13.936;2024-03-08T12:33:23;100212.91;;;9.95;100.00
28310;BME280;15571;50.974;13.936;2024-03-08T12:36:25;100203.25;;;10.18;100.00
28310;BME280;15571;50.974;13.936;2024-03-08T12:39:29;100205.84;;;10.21;100.00
28310;BME280;15571;50.974;13.936;2024-03-08T12:42:31;100204.13;;;10.15;100.00
28310;BME280;15571;50.974;13.936;2024-03-08T12:45:33;100191.00;;;10.26;100.00
28310;BME280;15571;50.974;13.936;2024-03-08T12:48:36;100189.25;;;10.33;100.00
28310;BME280;15571;50.974;13.936;2024-03-08T12:51:40;100193.56;;;10.37;100.00
28310;BME280;15571;50.974;13.936;2024-03-08T12:54:45;100185.78;;;10.20;100.00
28310;BME280;15571;50.974;13.936;2024-03-08T12:57:48;100183.97;;;10.43;100.00
28310;BME280;15571;50.974;13.936;2024-03-08T13:00:52;100182.25;;;10.39;100.00
28310;BME280;15571;50.974;13.936;2024-03-08T13:03:55;100181.41;;;10.37;100.00
28310;BME280;15571;50.974;13.936;2024-03-08T13:06:57;100181.41;;;10.26;100.00
28310;BME280;15571;50.974;13.936;2024-03-08T13:09:59;100170.03;;;10.43;100.00
28310;BME280;15571;50.974;13.936;2024-03-08T13:13:01;100169.09;;;10.50;100.00
28310;BME280;15571;50.974;13.936;2024-03-08T13:16:03;100156.06;;;10.46;100.00
28310;BME280;15571;50.974;13.936;2024-03-08T13:19:09;100149.97;;;10.42;100.00
28310;BME280;15571;50.974;13.936;2024-03-08T13:22:12;100159.59;;;10.38;100.00
28310;BME280;15571;50.974;13.936;2024-03-08T13:25:17;100154.22;;;10.55;100.00
28310;BME280;15571;50.974;13.936;2024-03-08T13:28:20;100144.59;;;10.59;100.00
28310;BME280;15571;50.974;13.936;2024-03-08T13:31:30;100143.78;;;10.57;100.00
28310;BME280;15571;50.974;13.936;2024-03-08T13:34:35;100138.50;;;10.60;100.00
28310;BME280;15571;50.974;13.936;2024-03-08T13:37:37;100129.75;;;10.64;100.00
28310;BME280;15571;50.974;13.936;2024-03-08T13:40:42;100128.06;;;10.57;100.00
28310;BME280;15571;50.974;13.936;2024-03-08T13:43:45;100121.94;;;10.59;100.00
28310;BME280;15571;50.974;13.936;2024-03-08T13:46:47;100122.84;;;10.54;100.00
28310;BME280;15571;50.974;13.936;2024-03-08T13:49:52;100115.94;;;10.43;100.00
28310;BME280;15571;50.974;13.936;2024-03-08T13:52:55;100121.94;;;10.59;100.00
28310;BME280;15571;50.974;13.936;2024-03-08T13:55:57;100116.53;;;10.80;100.00
28310;BME280;15571;50.974;13.936;2024-03-08T13:59:00;100107.91;;;10.70;100.00
28310;BME280;15571;50.974;13.936;2024-03-08T14:02:02;100105.25;;;10.71;100.00
28310;BME280;15571;50.974;13.936;2024-03-08T14:05:06;100102.53;;;10.87;100.00
28310;BME280;15571;50.974;13.936;2024-03-08T14:08:09;100102.63;;;10.73;100.00
28310;BME280;15571;50.974;13.936;2024-03-08T14:11:12;100096.50;;;10.76;100.00
28310;BME280;15571;50.974;13.936;2024-03-08T14:14:21;100093.91;;;10.76;100.00
28310;BME280;15571;50.974;13.936;2024-03-08T14:17:24;100089.56;;;10.68;100.00
28310;BME280;15571;50.974;13.936;2024-03-08T14:20:28;100081.75;;;10.65;100.00
28310;BME280;15571;50.974;13.936;2024-03-08T14:23:31;100086.81;;;10.85;100.00
28310;BME280;15571;50.974;13.936;2024-03-08T14:26:35;100084.22;;;10.81;100.00
28310;BME280;15571;50.974;13.936;2024-03-08T14:29:38;100074.56;;;10.89;100.00
28310;BME280;15571;50.974;13.936;2024-03-08T14:32:40;100084.97;;;10.97;100.00
28310;BME280;15571;50.974;13.936;2024-03-08T14:35:43;100084.13;;;10.96;100.00
28310;BME280;15571;50.974;13.936;2024-03-08T14:38:47;100071.75;;;11.11;100.00
28310;BME280;15571;50.974;13.936;2024-03-08T14:41:49;100064.72;;;11.13;100.00
28310;BME280;15571;50.974;13.936;2024-03-08T14:44:55;100063.88;;;11.11;100.00
28310;BME280;15571;50.974;13.936;2024-03-08T14:47:57;100059.41;;;11.19;100.00
28310;BME280;15571;50.974;13.936;2024-03-08T14:51:01;100053.41;;;11.08;100.00
28310;BME280;15571;50.974;13.936;2024-03-08T14:54:04;100060.41;;;11.09;100.00
28310;BME280;15571;50.974;13.936;2024-03-08T14:57:07;100062.75;;;11.32;100.00
28310;BME280;15571;50.974;13.936;2024-03-08T15:00:09;100048.22;;;11.03;100.00
28310;BME280;15571;50.974;13.936;2024-03-08T15:03:17;100052.59;;;11.05;100.00
28310;BME280;15571;50.974;13.936;2024-03-08T15:06:21;100045.72;;;10.92;100.00
28310;BME280;15571;50.974;13.936;2024-03-08T15:09:25;100041.22;;;11.05;100.00
28310;BME280;15571;50.974;13.936;2024-03-08T15:12:30;100036.88;;;11.05;100.00
28310;BME280;15571;50.974;13.936;2024-03-08T15:15:32;100037.69;;;11.11;100.00
28310;BME280;15571;50.974;13.936;2024-03-08T15:18:34;100039.69;;;10.87;100.00
28310;BME280;15571;50.974;13.936;2024-03-08T15:21:38;100042.34;;;10.81;100.00
28310;BME280;15571;50.974;13.936;2024-03-08T15:24:40;100042.13;;;11.02;100.00
28310;BME280;15571;50.974;13.936;2024-03-08T15:27:43;100033.56;;;10.86;100.00
28310;BME280;15571;50.974;13.936;2024-03-08T15:30:48;100035.31;;;10.86;100.00
28310;BME280;15571;50.974;13.936;2024-03-08T15:33:56;100028.44;;;10.76;100.00
28310;BME280;15571;50.974;13.936;2024-03-08T15:37:02;100017.91;;;10.82;100.00
28310;BME280;15571;50.974;13.936;2024-03-08T15:40:06;100026.53;;;10.90;100.00
28310;BME280;15571;50.974;13.936;2024-03-08T15:43:08;100025.88;;;10.71;100.00
28310;BME280;15571;50.974;13.936;2024-03-08T15:46:12;100021.41;;;10.78;100.00